Time;durP1;ratioP1;P1;durP2;ratioP2;P2;SDS_P1;SDS_P2;PMS_P1;PMS_P2;Temp;Humidity;BMP_temperature;BMP_pressure;BME280_temperature;BME280_humidity;BME280_pressure;Samples;Min_cycle;Max_cycle;Signal;HPM_P1;HPM_P2
2022/09/21 00:00:22;;;;;;;7.57;4.35;;;12.30;99.90;;;;;;5043515;28;20024;-84
2022/09/21 00:02:48;;;;;;;9.88;4.10;;;12.20;99.90;;;;;;5048674;28;20036;-80
2022/09/21 00:05:13;;;;;;;8.30;4.35;;;9.70;99.90;;;;;;5040473;28;20021;-83
2022/09/21 00:07:39;;;;;;;9.75;5.00;;;9.70;99.90;;;;;;5023084;28;20278;-82
2022/09/21 00:10:05;;;;;;;6.75;4.10;;;9.80;99.90;;;;;;5058837;28;20043;-83
2022/09/21 00:12:37;;;;;;;8.30;3.90;;;9.70;99.90;;;;;;5062488;28;20028;-84
2022/09/21 00:15:07;;;;;;;6.75;4.45;;;9.80;99.90;;;;;;5032633;28;20033;-82
2022/09/21 00:17:33;;;;;;;7.97;4.77;;;11.90;99.90;;;;;;5060585;28;20040;-82
2022/09/21 00:20:01;;;;;;;9.52;4.80;;;;;;;;;;5038277;28;20279;-84
2022/09/21 00:22:27;;;;;;;7.70;4.65;;;9.70;99.90;;;;;;5037298;28;20025;-85
2022/09/21 00:24:54;;;;;;;7.43;4.00;;;10.40;99.90;;;;;;5063667;28;20017;-86
2022/09/21 00:27:20;;;;;;;8.25;4.25;;;10.60;99.90;;;;;;5045010;28;20025;-82
2022/09/21 00:29:47;;;;;;;8.10;4.10;;;;;;;;;;5036990;28;20021;-85
2022/09/21 00:32:14;;;;;;;8.50;4.30;;;9.50;99.90;;;;;;5055307;28;20028;-83
2022/09/21 00:34:40;;;;;;;8.38;4.30;;;10.20;99.90;;;;;;5034539;28;20032;-85
2022/09/21 00:37:08;;;;;;;7.40;4.22;;;10.00;99.90;;;;;;5038470;28;20031;-82
2022/09/21 00:39:34;;;;;;;11.57;4.50;;;12.00;99.90;;;;;;5039648;28;20088;-85
2022/09/21 00:41:59;;;;;;;6.32;4.55;;;11.10;99.90;;;;;;5035581;28;20064;-84
2022/09/21 00:44:32;;;;;;;9.13;4.10;;;11.80;99.90;;;;;;5056520;28;20043;-85
2022/09/21 00:47:08;;;;;;;7.25;4.65;;;9.40;99.90;;;;;;5054187;28;20040;-80
2022/09/21 00:49:35;;;;;;;8.07;4.13;;;9.30;99.90;;;;;;5051863;28;20097;-82
2022/09/21 00:52:04;;;;;;;8.88;4.65;;;9.30;99.90;;;;;;5056947;28;20025;-84
2022/09/21 00:54:37;;;;;;;6.15;4.20;;;9.30;99.90;;;;;;5043170;28;20035;-83
2022/09/21 00:57:02;;;;;;;6.93;4.45;;;11.90;99.90;;;;;;5025127;28;20037;-84
2022/09/21 00:59:34;;;;;;;9.85;4.57;;;9.20;99.90;;;;;;5042053;28;20433;-82
2022/09/21 01:02:00;;;;;;;8.95;4.57;;;9.20;99.90;;;;;;5060699;28;20024;-82
2022/09/21 01:04:27;;;;;;;6.75;4.25;;;9.40;99.90;;;;;;5052397;28;20029;-86
2022/09/21 01:06:54;;;;;;;7.10;3.75;;;9.20;99.90;;;;;;5039638;28;20032;-82
2022/09/21 01:09:20;;;;;;;9.27;4.68;;;9.20;99.90;;;;;;5040378;28;20021;-83
2022/09/21 01:12:00;;;;;;;7.28;4.43;;;11.80;99.90;;;;;;5022200;28;20129;-83
2022/09/21 01:14:35;;;;;;;10.63;4.38;;;6.80;99.90;;;;;;5040058;28;20029;-83
2022/09/21 01:17:10;;;;;;;8.85;4.22;;;9.60;99.90;;;;;;5035625;28;20029;-83
2022/09/21 01:20:03;;;;;;;8.63;4.47;;;9.10;99.90;;;;;;5054022;28;20059;-83
2022/09/21 01:22:40;;;;;;;8.57;4.75;;;11.40;99.90;;;;;;5057457;28;20104;-81
2022/09/21 01:25:18;;;;;;;10.13;4.82;;;9.10;99.90;;;;;;5055302;28;20018;-83
2022/09/21 01:28:11;;;;;;;7.90;4.90;;;9.10;99.90;;;;;;5037715;28;20165;-82
2022/09/21 01:30:40;;;;;;;9.15;4.57;;;9.00;99.90;;;;;;5056223;28;20029;-85
2022/09/21 01:33:14;;;;;;;7.50;4.25;;;11.50;99.90;;;;;;5042619;28;20172;-82
2022/09/21 01:35:45;;;;;;;7.75;4.75;;;12.10;99.90;;;;;;5037347;28;20108;-83
2022/09/21 01:38:32;;;;;;;6.30;4.22;;;9.90;99.90;;;;;;5038557;28;20100;-82
2022/09/21 01:41:01;;;;;;;6.78;4.68;;;9.50;99.90;;;;;;5056783;28;20037;-83
2022/09/21 01:43:35;;;;;;;8.97;4.90;;;10.70;99.90;;;;;;5047749;28;20047;-84
2022/09/21 01:46:03;;;;;;;9.40;4.70;;;9.30;99.90;;;;;;5038540;28;20119;-86
2022/09/21 01:48:35;;;;;;;8.98;4.85;;;8.90;99.90;;;;;;5031497;28;20053;-86
2022/09/21 01:51:05;;;;;;;9.20;4.88;;;10.70;99.90;;;;;;5038729;28;20056;-86
2022/09/21 01:54:19;;;;;;;8.17;4.80;;;8.90;99.90;;;;;;5054723;28;20463;-83
2022/09/21 01:56:50;;;;;;;8.05;4.75;;;9.60;99.90;;;;;;5051571;28;20036;-86
2022/09/21 01:59:52;;;;;;;8.20;4.35;;;8.90;99.90;;;;;;5036022;28;20017;-85
2022/09/21 02:02:31;;;;;;;8.27;4.03;;;8.80;99.90;;;;;;5016953;28;20120;-85
2022/09/21 02:05:00;;;;;;;10.95;4.68;;;8.80;99.90;;;;;;5032005;28;20017;-84
2022/09/21 02:07:26;;;;;;;11.60;4.13;;;8.70;99.90;;;;;;5034139;28;20029;-80
2022/09/21 02:09:54;;;;;;;6.72;4.60;;;10.90;99.90;;;;;;5037170;28;20031;-83
2022/09/21 02:12:20;;;;;;;7.95;4.20;;;8.70;99.90;;;;;;5058349;28;20093;-85
2022/09/21 02:14:48;;;;;;;5.78;3.90;;;9.60;99.90;;;;;;5051875;28;20056;-88
2022/09/21 02:17:33;;;;;;;9.20;4.70;;;8.60;99.90;;;;;;5035846;28;20037;-85
2022/09/21 02:20:16;;;;;;;8.48;3.72;;;8.60;99.90;;;;;;5040930;28;20051;-85
2022/09/21 02:22:51;;;;;;;8.93;4.38;;;8.60;99.90;;;;;;5039102;28;20452;-81
2022/09/21 02:25:24;;;;;;;12.40;4.70;;;9.60;99.90;;;;;;5043746;28;20029;-83
2022/09/21 02:27:55;;;;;;;8.63;4.70;;;8.90;99.90;;;;;;5038440;28;20478;-82
2022/09/21 02:30:26;;;;;;;7.18;4.13;;;11.10;99.90;;;;;;5036583;28;20116;-84
2022/09/21 02:33:16;;;;;;;6.88;4.55;;;8.50;99.90;;;;;;5050500;28;20032;-81
2022/09/21 02:35:50;;;;;;;7.72;4.50;;;8.50;99.90;;;;;;5032243;28;20052;-84
2022/09/21 02:38:45;;;;;;;9.48;4.30;;;8.80;99.90;;;;;;5034100;28;20458;-84
2022/09/21 02:41:15;;;;;;;8.25;4.55;;;8.50;99.90;;;;;;5051528;28;20057;-83
2022/09/21 02:43:41;;;;;;;;;;;8.50;99.90;;;;;;5037634;28;20025;-86
2022/09/21 02:46:22;;;;;;;8.20;4.30;;;8.50;99.90;;;;;;5031863;28;20004;-81
2022/09/21 02:48:52;;;;;;;8.30;4.20;;;8.50;99.90;;;;;;5039160;28;20029;-82
2022/09/21 02:51:35;;;;;;;8.68;3.90;;;8.50;99.90;;;;;;5058267;28;20137;-87
2022/09/21 02:54:05;;;;;;;9.20;4.07;;;8.90;99.90;;;;;;5046650;28;20032;-82
2022/09/21 02:56:32;;;;;;;9.90;4.40;;;8.40;99.90;;;;;;5066771;28;20055;-81
2022/09/21 02:59:03;;;;;;;7.90;4.38;;;9.60;99.90;;;;;;5057839;28;20032;-83
2022/09/21 03:01:30;;;;;;;10.52;4.22;;;8.40;99.90;;;;;;5045480;28;20458;-85
2022/09/21 03:03:56;;;;;;;8.20;4.63;;;8.30;99.90;;;;;;5039767;28;20026;-85
2022/09/21 03:06:22;;;;;;;7.60;4.28;;;8.30;99.90;;;;;;5035574;28;20025;-84
2022/09/21 03:08:48;;;;;;;8.10;4.60;;;;;;;;;;5032491;28;20033;-85
2022/09/21 03:11:17;;;;;;;8.63;4.65;;;8.30;99.90;;;;;;5051800;28;20163;-85
2022/09/21 03:13:43;;;;;;;6.35;4.00;;;8.30;99.90;;;;;;5020833;28;20096;-80
2022/09/21 03:16:09;;;;;;;6.90;3.90;;;8.90;99.90;;;;;;5035901;28;20061;-82
2022/09/21 03:18:35;;;;;;;7.65;4.35;;;8.30;99.90;;;;;;5041644;28;20064;-83
2022/09/21 03:21:01;;;;;;;8.00;4.30;;;9.30;99.90;;;;;;5045862;28;20083;-85
2022/09/21 03:23:27;;;;;;;9.52;4.35;;;10.60;99.90;;;;;;5020131;28;20036;-81
2022/09/21 03:25:53;;;;;;;7.20;4.15;;;10.20;99.90;;;;;;5048316;28;20025;-86
2022/09/21 03:28:20;;;;;;;8.43;4.85;;;8.80;99.90;;;;;;5057129;28;20025;-86
2022/09/21 03:30:47;;;;;;;7.72;4.55;;;9.70;99.90;;;;;;5041071;28;20031;-84
2022/09/21 03:33:13;;;;;;;7.15;4.40;;;5.80;99.90;;;;;;5042437;28;20028;-85
2022/09/21 03:35:38;;;;;;;7.60;4.53;;;8.10;99.90;;;;;;5041905;28;20059;-84
2022/09/21 03:38:04;;;;;;;7.20;4.35;;;8.20;99.90;;;;;;5036502;28;20079;-83
2022/09/21 03:40:31;;;;;;;10.30;4.18;;;8.90;99.90;;;;;;5039741;28;20036;-85
2022/09/21 03:42:57;;;;;;;8.40;3.83;;;8.10;99.90;;;;;;5042545;28;20031;-86
2022/09/21 03:45:23;;;;;;;9.80;4.28;;;8.10;99.90;;;;;;5054707;28;20029;-86
2022/09/21 03:47:49;;;;;;;7.00;3.53;;;9.10;99.90;;;;;;5038333;28;20026;-87
2022/09/21 03:50:15;;;;;;;8.40;4.60;;;;;;;;;;5057878;28;20035;-84
2022/09/21 03:52:41;;;;;;;7.30;4.30;;;8.10;99.90;;;;;;5040284;28;20025;-86
2022/09/21 03:55:08;;;;;;;7.07;3.80;;;8.00;99.90;;;;;;5039679;28;20060;-83
2022/09/21 03:57:35;;;;;;;6.80;3.60;;;8.10;99.90;;;;;;5035791;28;20029;-84
2022/09/21 04:00:06;;;;;;;6.72;4.13;;;8.00;99.90;;;;;;5035594;28;20021;-86
2022/09/21 04:02:32;;;;;;;7.30;3.83;;;8.00;99.90;;;;;;5035753;28;20094;-89
2022/09/21 04:04:57;;;;;;;8.00;4.20;;;9.40;99.90;;;;;;5055194;28;20053;-83
2022/09/21 04:07:23;;;;;;;7.18;3.95;;;;;;;;;;5062290;28;20025;-84
2022/09/21 04:09:49;;;;;;;8.65;4.15;;;8.00;99.90;;;;;;5054510;28;20071;-86
2022/09/21 04:12:15;;;;;;;9.13;3.80;;;;;;;;;;5041997;28;20028;-83
2022/09/21 04:14:41;;;;;;;5.60;4.03;;;7.90;99.90;;;;;;5034594;28;20083;-85
2022/09/21 04:17:06;;;;;;;7.00;3.70;;;8.20;99.90;;;;;;5028258;28;20033;-85
2022/09/21 04:19:32;;;;;;;8.60;3.58;;;;;;;;;;5057977;28;20428;-85
2022/09/21 04:21:58;;;;;;;9.07;4.32;;;7.80;99.90;;;;;;5043415;28;20544;-84
2022/09/21 04:24:23;;;;;;;8.07;4.07;;;7.80;99.90;;;;;;5038214;28;20255;-81
2022/09/21 04:26:49;;;;;;;7.88;3.85;;;;;;;;;;5036651;28;20509;-84
2022/09/21 04:29:15;;;;;;;9.60;4.18;;;7.80;99.90;;;;;;5043349;28;20021;-83
2022/09/21 04:31:41;;;;;;;6.88;3.90;;;7.80;99.90;;;;;;5041075;28;20029;-84
2022/09/21 04:34:10;;;;;;;6.43;3.65;;;7.80;99.90;;;;;;5037899;28;20021;-85
2022/09/21 04:36:36;;;;;;;6.00;3.92;;;7.70;99.90;;;;;;5055530;28;20029;-88
2022/09/21 04:39:03;;;;;;;7.32;3.95;;;7.70;99.90;;;;;;5042054;28;20025;-85
2022/09/21 04:41:29;;;;;;;9.43;4.45;;;7.70;99.90;;;;;;5035368;28;20097;-82
2022/09/21 04:43:55;;;;;;;7.45;4.10;;;;;;;;;;5048370;28;20151;-83
2022/09/21 04:46:21;;;;;;;9.13;3.80;;;7.70;99.90;;;;;;5033399;28;20387;-85
2022/09/21 04:48:48;;;;;;;8.18;3.58;;;;;;;;;;5040562;28;20029;-83
2022/09/21 04:51:15;;;;;;;6.22;3.55;;;;;;;;;;5043576;28;20029;-82
2022/09/21 04:53:42;;;;;;;6.55;4.07;;;;;;;;;;5059931;28;20032;-84
2022/09/21 04:56:11;;;;;;;8.40;4.20;;;7.70;99.90;;;;;;5035705;28;20033;-83
2022/09/21 04:58:37;;;;;;;8.85;4.00;;;7.80;99.90;;;;;;5031546;28;20029;-83
2022/09/21 05:01:05;;;;;;;7.93;4.10;;;9.60;99.90;;;;;;5058472;28;20062;-84
2022/09/21 05:03:31;;;;;;;6.65;3.90;;;7.80;99.90;;;;;;5056360;28;20819;-86
2022/09/21 05:05:57;;;;;;;8.77;4.10;;;7.80;99.90;;;;;;5035751;28;20033;-86
2022/09/21 05:11:11;;;;;;;9.35;3.70;;;;;;;;;;5060937;28;20405;-89
2022/09/21 05:13:38;;;;;;;13.05;3.80;;;;;;;;;;5036769;28;20020;-86
2022/09/21 05:16:04;;;;;;;6.00;4.22;;;;;;;;;;5048625;28;20152;-86
2022/09/21 05:18:30;;;;;;;8.98;4.00;;;;;;;;;;5038053;28;20561;-83
2022/09/21 05:20:56;;;;;;;8.93;3.75;;;;;;;;;;5052990;28;20040;-88
2022/09/21 05:23:23;;;;;;;9.85;4.38;;;;;;;;;;5035373;28;20078;-87
2022/09/21 05:25:49;;;;;;;6.30;3.80;;;;;;;;;;5033398;28;20112;-88
2022/09/21 05:28:16;;;;;;;8.05;4.53;;;;;;;;;;5037664;28;20586;-86
2022/09/21 05:31:08;;;;;;;9.77;3.83;;;7.80;99.90;;;;;;5034441;28;20089;-89
2022/09/21 05:33:35;;;;;;;7.70;4.20;;;7.80;99.90;;;;;;5051554;28;20030;-87
2022/09/21 05:36:10;;;;;;;9.35;3.67;;;;;;;;;;5036503;28;20029;-87
2022/09/21 05:38:36;;;;;;;8.70;4.35;;;7.70;99.90;;;;;;5046540;28;21700;-85
2022/09/21 05:41:03;;;;;;;7.78;4.15;;;;;;;;;;5035966;28;20079;-87
2022/09/21 05:43:28;;;;;;;7.57;4.18;;;7.70;99.90;;;;;;5054297;28;20017;-87
2022/09/21 05:46:24;;;;;;;6.22;3.80;;;7.10;99.90;;;;;;5033642;28;20093;-86
2022/09/21 05:49:01;;;;;;;9.38;3.80;;;7.70;99.90;;;;;;5041264;28;20039;-86
2022/09/21 05:51:46;;;;;;;8.48;4.45;;;7.70;99.90;;;;;;5029671;28;20052;-86
2022/09/21 05:54:20;;;;;;;6.50;3.95;;;;;;;;;;5034064;28;20031;-84
2022/09/21 05:56:57;;;;;;;9.25;5.20;;;7.80;99.90;;;;;;5021047;28;20038;-83
2022/09/21 05:59:43;;;;;;;6.35;4.43;;;7.70;99.90;;;;;;5051463;28;20029;-88
2022/09/21 06:02:15;;;;;;;11.02;5.20;;;7.90;99.90;;;;;;5045450;28;20044;-86
2022/09/21 06:04:41;;;;;;;7.13;4.57;;;;;;;;;;5033323;28;20021;-82
2022/09/21 06:07:07;;;;;;;10.50;4.28;;;;;;;;;;5038055;28;20028;-84
2022/09/21 06:09:33;;;;;;;7.55;4.50;;;;;;;;;;5035543;28;20033;-85
2022/09/21 06:11:59;;;;;;;7.88;4.22;;;;;;;;;;5035131;28;20025;-85
2022/09/21 06:14:25;;;;;;;17.90;5.20;;;8.10;99.90;;;;;;5034199;28;20064;-85
2022/09/21 06:16:51;;;;;;;9.27;4.40;;;8.20;99.90;;;;;;5049207;28;20040;-82
2022/09/21 06:19:17;;;;;;;10.43;4.30;;;7.90;99.90;;;;;;5029728;28;20203;-83
2022/09/21 06:21:43;;;;;;;9.35;4.45;;;;;;;;;;5045859;28;20104;-85
2022/09/21 06:24:09;;;;;;;5.85;4.00;;;;;;;;;;5036199;28;20112;-86
2022/09/21 06:26:35;;;;;;;7.72;3.90;;;8.10;99.90;;;;;;5030849;28;20223;-85
2022/09/21 06:29:01;;;;;;;9.70;4.35;;;;;;;;;;5045842;28;20690;-83
2022/09/21 06:31:27;;;;;;;8.02;4.38;;;8.30;99.90;;;;;;5047619;28;20036;-83
2022/09/21 06:33:53;;;;;;;10.50;4.80;;;8.30;99.90;;;;;;5030483;28;20502;-86
2022/09/21 06:36:19;;;;;;;10.05;4.75;;;;;;;;;;5048279;28;20029;-84
2022/09/21 06:38:45;;;;;;;9.57;4.90;;;;;;;;;;5029985;28;20039;-86
2022/09/21 06:41:11;;;;;;;8.20;4.38;;;;;;;;;;5034388;28;20072;-88
2022/09/21 06:43:37;;;;;;;9.43;4.68;;;;;;;;;;5030835;28;20029;-82
2022/09/21 06:46:03;;;;;;;7.15;4.03;;;8.90;99.90;;;;;;5039881;28;20056;-85
2022/09/21 06:48:31;;;;;;;7.10;3.90;;;9.30;99.90;;;;;;5012420;28;20040;-86
2022/09/21 06:51:01;;;;;;;8.73;3.75;;;9.40;99.90;;;;;;5033883;28;20033;-85
2022/09/21 06:53:29;;;;;;;8.43;4.35;;;11.20;99.90;;;;;;5034623;28;20036;-85
2022/09/21 06:56:06;;;;;;;6.25;4.30;;;9.50;99.90;;;;;;5036389;28;20482;-87
2022/09/21 06:58:36;;;;;;;8.88;4.05;;;;;;;;;;5054608;28;20043;-87
2022/09/21 07:01:12;;;;;;;7.80;4.85;;;9.90;99.90;;;;;;5032709;28;20108;-83
2022/09/21 07:03:39;;;;;;;8.88;4.32;;;9.90;99.90;;;;;;5054142;28;20457;-83
2022/09/21 07:06:06;;;;;;;7.38;4.50;;;10.00;99.90;;;;;;5046966;28;20051;-85
2022/09/21 07:08:32;;;;;;;7.40;4.43;;;;;;;;;;5036681;28;20079;-87
2022/09/21 07:10:59;;;;;;;8.10;4.38;;;10.40;99.90;;;;;;5034476;28;20505;-83
2022/09/21 07:13:26;;;;;;;7.47;4.38;;;10.40;99.90;;;;;;5029704;28;20029;-82
2022/09/21 07:15:52;;;;;;;13.23;4.47;;;;;;;;;;5049898;28;20025;-82
2022/09/21 07:18:18;;;;;;;9.82;4.40;;;;;;;;;;5049298;28;20096;-84
2022/09/21 07:20:44;;;;;;;8.20;4.25;;;;;;;;;;5033182;28;20455;-86
2022/09/21 07:23:14;;;;;;;7.03;4.05;;;;;;;;;;5031715;28;20021;-88
2022/09/21 07:25:40;;;;;;;8.32;3.70;;;;;;;;;;5042636;28;20021;-84
2022/09/21 07:28:09;;;;;;;12.02;4.22;;;;;;;;;;5033449;28;20029;-86
2022/09/21 07:30:37;;;;;;;8.10;4.57;;;11.00;99.90;;;;;;5051829;28;20056;-83
2022/09/21 07:33:03;;;;;;;5.97;4.13;;;;;;;;;;5033214;28;20037;-83
2022/09/21 07:35:29;;;;;;;8.02;4.50;;;11.20;99.90;;;;;;5035015;28;20040;-87
2022/09/21 07:37:59;;;;;;;8.23;4.50;;;;;;;;;;5018284;28;20064;-81
2022/09/21 07:40:25;;;;;;;10.75;4.63;;;;;;;;;;5043430;28;20037;-86
2022/09/21 07:42:51;;;;;;;7.47;4.43;;;11.30;99.90;;;;;;5031472;28;20523;-84
2022/09/21 07:45:17;;;;;;;10.25;4.95;;;;;;;;;;5042710;28;20508;-86
2022/09/21 07:47:43;;;;;;;8.52;4.30;;;;;;;;;;5033833;28;20048;-85
2022/09/21 07:50:09;;;;;;;7.63;4.57;;;;;;;;;;5026783;28;20096;-82
2022/09/21 07:52:35;;;;;;;8.30;4.03;;;;;;;;;;5032196;28;20039;-85
2022/09/21 07:55:01;;;;;;;5.75;4.13;;;;;;;;;;5044389;28;20287;-83
2022/09/21 08:00:11;;;;;;;8.80;4.53;;;;;;;;;;5048674;28;20059;-85
2022/09/21 08:02:38;;;;;;;7.47;4.28;;;;;;;;;;5014413;28;20029;-84
2022/09/21 08:05:04;;;;;;;7.40;3.60;;;;;;;;;;5034168;28;20021;-82
2022/09/21 08:07:30;;;;;;;4.97;3.40;;;;;;;;;;5044371;28;20055;-88
2022/09/21 08:09:57;;;;;;;7.75;3.63;;;;;;;;;;5025398;28;20033;-83
2022/09/21 08:12:23;;;;;;;6.78;3.20;;;;;;;;;;5046783;28;20032;-81
2022/09/21 08:14:49;;;;;;;7.50;3.00;;;;;;;;;;5029731;28;20036;-87
2022/09/21 08:17:18;;;;;;;5.60;3.00;;;;;;;;;;5032247;28;20033;-83
2022/09/21 08:19:44;;;;;;;8.07;3.47;;;;;;;;;;5050816;28;20033;-82
2022/09/21 08:22:11;;;;;;;6.70;2.90;;;;;;;;;;5033593;28;20079;-80
2022/09/21 08:24:37;;;;;;;6.47;2.63;;;13.30;99.90;;;;;;5031240;28;20043;-86
2022/09/21 08:27:03;;;;;;;6.22;2.92;;;;;;;;;;5028395;28;20025;-82
2022/09/21 08:29:29;;;;;;;6.40;2.67;;;;;;;;;;5025354;28;20033;-82
2022/09/21 08:31:55;;;;;;;4.90;2.35;;;;;;;;;;5032859;28;20029;-86
2022/09/21 08:34:22;;;;;;;4.70;2.42;;;13.70;99.90;;;;;;5043903;28;20025;-82
2022/09/21 08:36:48;;;;;;;5.47;2.10;;;;;;;;;;5046675;28;20901;-84
2022/09/21 08:39:17;;;;;;;5.30;2.50;;;;;;;;;;5045155;28;20025;-85
2022/09/21 08:42:04;;;;;;;4.65;2.42;;;13.70;99.90;;;;;;5037072;28;20076;-78
2022/09/21 08:44:47;;;;;;;4.75;2.20;;;13.50;99.90;;;;;;5033569;28;20028;-80
2022/09/21 08:47:34;;;;;;;6.45;2.47;;;13.60;99.90;;;;;;5030486;28;20054;-85
2022/09/21 08:50:02;;;;;;;6.32;2.50;;;13.70;99.90;;;;;;5031451;28;20057;-85
2022/09/21 08:52:28;;;;;;;8.98;2.28;;;;;;;;;;5027312;28;20044;-82
2022/09/21 08:54:57;;;;;;;6.25;2.50;;;;;;;;;;5054618;28;20457;-83
2022/09/21 08:57:27;;;;;;;4.07;2.05;;;;;;;;;;5053579;28;20775;-83
2022/09/21 08:59:53;;;;;;;;;;;;;;;;;;5053174;28;20048;-85
2022/09/21 09:02:38;;;;;;;12.43;2.33;;;;;;;;;;5054684;28;19917;-82
2022/09/21 09:05:18;;;;;;;6.95;2.35;;;14.50;99.90;;;;;;5036486;28;20025;-85
2022/09/21 09:08:12;;;;;;;7.47;2.50;;;14.60;99.90;;;;;;5052504;28;20029;-86
2022/09/21 09:11:12;;;;;;;5.40;2.67;;;14.60;99.90;;;;;;5051082;28;20025;-86
2022/09/21 09:13:41;;;;;;;3.00;1.98;;;;;;;;;;5055498;28;20139;-82
2022/09/21 09:16:19;;;;;;;4.28;2.25;;;;;;;;;;5041174;28;20114;-86
2022/09/21 09:18:50;;;;;;;5.15;1.85;;;;;;;;;;5043961;28;20500;-84
2022/09/21 09:21:25;;;;;;;4.60;2.30;;;;;;;;;;5040439;28;20116;-86
2022/09/21 09:23:56;;;;;;;3.60;1.77;;;15.20;99.90;;;;;;5041454;28;20112;-82
2022/09/21 09:26:41;;;;;;;6.20;1.70;;;;;;;;;;5039062;28;20024;-85
2022/09/21 09:29:13;;;;;;;4.35;1.80;;;;;;;;;;5053909;28;20025;-85
2022/09/21 09:31:39;;;;;;;5.72;1.63;;;;;;;;;;5056253;28;20040;-84
2022/09/21 09:34:08;;;;;;;3.95;1.60;;;;;;;;;;5038930;28;20029;-83
2022/09/21 09:36:35;;;;;;;3.50;1.70;;;;;;;;;;5037833;28;20082;-82
2022/09/21 09:39:13;;;;;;;4.60;1.63;;;15.70;99.90;;;;;;5040787;28;20029;-84
2022/09/21 09:41:38;;;;;;;3.90;1.70;;;15.70;99.90;;;;;;5037604;28;20032;-84
2022/09/21 09:44:27;;;;;;;6.45;1.98;;;15.70;99.90;;;;;;5031578;28;20096;-82
2022/09/21 09:47:11;;;;;;;6.22;2.22;;;15.70;99.90;;;;;;5056824;28;20032;-84
2022/09/21 09:50:03;;;;;;;11.80;6.20;;;15.90;99.90;;;;;;5040834;28;20116;-84
2022/09/21 09:52:31;;;;;;;5.18;1.58;;;15.90;99.90;;;;;;5036801;28;20025;-85
2022/09/21 09:55:10;;;;;;;5.60;1.85;;;16.10;99.90;;;;;;5036142;28;20053;-84
2022/09/21 09:57:36;;;;;;;4.82;2.17;;;;;;;;;;5051736;28;20033;-85
2022/09/21 10:00:10;;;;;;;10.63;3.75;;;16.30;99.90;;;;;;5040013;28;20027;-86
2022/09/21 10:02:47;;;;;;;5.45;1.70;;;16.40;99.90;;;;;;5050422;28;20032;-84
2022/09/21 10:05:23;;;;;;;5.00;1.90;;;16.40;99.90;;;;;;5038121;28;20021;-83
2022/09/21 10:07:49;;;;;;;5.93;1.30;;;16.50;99.90;;;;;;5036187;28;20025;-83
2022/09/21 10:10:22;;;;;;;5.60;2.50;;;;;;;;;;5049993;28;20410;-84
2022/09/21 10:12:49;;;;;;;2.55;1.20;;;16.40;99.90;;;;;;5037039;28;20105;-85
2022/09/21 10:15:22;;;;;;;6.95;1.40;;;16.40;99.90;;;;;;5057389;28;20025;-86
2022/09/21 10:17:48;;;;;;;5.72;1.38;;;;;;;;;;5038475;28;20025;-85
2022/09/21 10:20:19;;;;;;;3.10;1.40;;;16.40;99.90;;;;;;5040049;28;20025;-84
2022/09/21 10:22:52;;;;;;;6.38;1.30;;;16.90;99.90;;;;;;5045300;28;21012;-84
2022/09/21 10:25:19;;;;;;;2.88;1.27;;;16.60;99.90;;;;;;5039229;28;20048;-85
2022/09/21 10:27:48;;;;;;;3.75;1.52;;;16.70;99.90;;;;;;5048710;28;20032;-81
2022/09/21 10:30:29;;;;;;;5.57;1.38;;;16.70;99.90;;;;;;5030634;28;20056;-86
2022/09/21 10:32:57;;;;;;;2.65;1.40;;;16.50;99.90;;;;;;5033792;28;20029;-84
2022/09/21 10:35:23;;;;;;;3.80;1.40;;;;;;;;;;5048879;28;20348;-84
2022/09/21 10:38:08;;;;;;;4.90;1.48;;;16.60;99.90;;;;;;5035371;28;20034;-84
2022/09/21 10:40:38;;;;;;;5.13;1.52;;;16.70;99.90;;;;;;5038167;28;20558;-85
2022/09/21 10:43:04;;;;;;;6.03;1.55;;;16.80;99.90;;;;;;5036795;28;20052;-85
2022/09/21 10:45:34;;;;;;;4.38;1.27;;;18.10;99.90;;;;;;5046200;28;20479;-85
2022/09/21 10:48:05;;;;;;;4.28;1.23;;;16.60;99.90;;;;;;5049910;28;20032;-87
2022/09/21 10:50:45;;;;;;;3.05;1.20;;;16.70;99.90;;;;;;5033264;28;20043;-85
2022/09/21 10:53:13;;;;;;;5.35;1.17;;;16.70;99.90;;;;;;5030700;28;20025;-83
2022/09/21 10:55:48;;;;;;;8.02;1.77;;;16.50;99.90;;;;;;5038120;28;20502;-83
2022/09/21 10:58:14;;;;;;;4.45;1.50;;;16.50;99.90;;;;;;5036758;28;20079;-86
2022/09/21 11:00:50;;;;;;;4.65;1.20;;;16.50;99.90;;;;;;5039393;28;20096;-83
2022/09/21 11:03:40;;;;;;;5.55;1.67;;;16.50;99.90;;;;;;5054633;28;20040;-82
2022/09/21 11:06:20;;;;;;;2.30;1.20;;;16.50;99.90;;;;;;5031841;28;20025;-85
2022/09/21 11:09:05;;;;;;;6.60;1.25;;;16.60;99.90;;;;;;5028189;28;20094;-85
2022/09/21 11:12:02;;;;;;;4.78;1.20;;;16.70;99.90;;;;;;5033766;28;20037;-86
2022/09/21 11:14:59;;;;;;;4.55;1.67;;;16.70;99.50;;;;;;5045091;28;20028;-87
2022/09/21 11:17:42;;;;;;;4.03;1.17;;;16.70;99.80;;;;;;5031450;28;20039;-83
2022/09/21 11:20:32;;;;;;;2.40;1.15;;;16.70;99.70;;;;;;5049397;28;20024;-83
2022/09/21 11:23:11;;;;;;;5.95;1.13;;;16.70;99.30;;;;;;5050730;28;20025;-84
2022/09/21 11:25:47;;;;;;;5.18;1.25;;;16.80;99.40;;;;;;5034345;28;20036;-85
2022/09/21 11:28:21;;;;;;;3.13;1.25;;;16.80;99.60;;;;;;5035332;28;20036;-86
2022/09/21 11:31:15;;;;;;;4.03;1.35;;;16.50;99.50;;;;;;5032601;28;20033;-84
2022/09/21 11:33:59;;;;;;;2.80;1.08;;;16.50;99.40;;;;;;4997504;28;20037;-90
2022/09/21 11:36:55;;;;;;;2.97;0.90;;;16.50;99.70;;;;;;5049780;28;20032;-87
2022/09/21 11:39:39;;;;;;;2.30;1.10;;;16.60;99.80;;;;;;5035584;28;20025;-84
2022/09/21 11:42:52;;;;;;;5.10;1.00;;;16.90;99.10;;;;;;5036135;28;20518;-84
2022/09/21 11:45:44;;;;;;;5.70;1.10;;;16.90;98.00;;;;;;5006286;28;20123;-83
2022/09/21 11:48:21;;;;;;;3.22;1.10;;;16.90;97.80;;;;;;5053618;28;20040;-85
2022/09/21 11:51:18;;;;;;;5.07;0.98;;;16.80;96.90;;;;;;5038414;28;20033;-85
2022/09/21 11:54:24;;;;;;;1.85;0.80;;;16.90;96.90;;;;;;5034673;28;20037;-85
2022/09/21 11:57:15;;;;;;;2.30;0.80;;;17.40;96.30;;;;;;5036062;28;20040;-85
2022/09/21 11:59:59;;;;;;;2.13;0.93;;;17.60;96.00;;;;;;5055416;28;20029;-82
2022/09/21 12:02:49;;;;;;;3.20;1.25;;;17.60;95.90;;;;;;5057120;28;20021;-84
2022/09/21 12:05:38;;;;;;;1.65;0.82;;;17.80;95.50;;;;;;5036165;28;20021;-84
2022/09/21 12:08:29;;;;;;;2.90;1.02;;;17.80;95.50;;;;;;5054570;28;20025;-84
2022/09/21 12:11:12;;;;;;;3.88;1.13;;;17.90;94.70;;;;;;5045776;28;20474;-82
2022/09/21 12:13:53;;;;;;;3.80;1.25;;;18.00;95.00;;;;;;5057047;28;20039;-84
2022/09/21 12:16:46;;;;;;;2.70;1.33;;;18.20;94.10;;;;;;5057424;28;20029;-86
2022/09/21 12:19:40;;;;;;;3.38;1.00;;;18.20;94.30;;;;;;5033741;28;20079;-87
2022/09/21 12:22:12;;;;;;;2.90;0.88;;;18.20;93.80;;;;;;5041032;28;20033;-83
2022/09/21 12:24:51;;;;;;;2.75;1.05;;;18.20;93.80;;;;;;5035391;28;20075;-85
2022/09/21 12:27:31;;;;;;;3.63;1.25;;;18.40;93.50;;;;;;5050328;28;20029;-85
2022/09/21 12:30:09;;;;;;;3.28;0.80;;;18.60;93.50;;;;;;5035242;28;20091;-80
2022/09/21 12:33:04;;;;;;;4.57;1.00;;;18.60;93.50;;;;;;5045523;28;20064;-82
2022/09/21 12:35:33;;;;;;;2.05;0.93;;;18.60;92.90;;;;;;5036009;28;20033;-85
2022/09/21 12:38:23;;;;;;;2.42;1.15;;;18.70;92.80;;;;;;5048075;28;20081;-80
2022/09/21 12:40:50;;;;;;;1.75;0.60;;;;;;;;;;5032793;28;20025;-82
2022/09/21 12:43:29;;;;;;;1.70;0.80;;;18.50;92.00;;;;;;5028909;28;20051;-84
2022/09/21 12:46:16;;;;;;;5.57;1.30;;;18.50;92.40;;;;;;5051365;28;20021;-84
2022/09/21 12:48:44;;;;;;;2.67;0.70;;;;;;;;;;5030633;28;20053;-81
2022/09/21 12:51:29;;;;;;;3.80;1.15;;;;;;;;;;5051859;28;20029;-84
2022/09/21 12:53:59;;;;;;;1.75;0.77;;;18.60;90.80;;;;;;5054218;28;20032;-80
2022/09/21 12:56:26;;;;;;;1.35;0.60;;;;;;;;;;5037484;28;20084;-85
2022/09/21 12:59:18;;;;;;;1.70;0.93;;;;;;;;;;5035225;28;20124;-80
2022/09/21 13:01:50;;;;;;;3.70;1.17;;;;;;;;;;5052844;28;20033;-81
2022/09/21 13:04:48;;;;;;;2.97;1.02;;;18.70;90.30;;;;;;5054342;28;20033;-81
2022/09/21 13:07:37;;;;;;;1.40;0.80;;;18.70;89.70;;;;;;5055864;28;20039;-83
2022/09/21 13:10:15;;;;;;;3.03;0.80;;;;;;;;;;5035098;28;20490;-85
2022/09/21 13:12:44;;;;;;;3.47;1.05;;;18.90;89.70;;;;;;5040707;28;20052;-83
2022/09/21 13:15:23;;;;;;;1.98;0.63;;;19.10;89.20;;;;;;5033045;28;20017;-85
2022/09/21 13:17:58;;;;;;;2.05;0.88;;;19.10;89.40;;;;;;5053951;28;20063;-87
2022/09/21 13:20:25;;;;;;;1.88;0.80;;;;;;;;;;5039058;28;20565;-86
2022/09/21 13:23:00;;;;;;;2.22;1.00;;;19.30;89.80;;;;;;5048446;28;20093;-83
2022/09/21 13:25:28;;;;;;;3.00;0.90;;;19.30;90.20;;;;;;5037774;28;20031;-83
2022/09/21 13:28:12;;;;;;;3.03;0.93;;;;;;;;;;5038562;28;20075;-83
2022/09/21 13:31:04;;;;;;;1.63;0.77;;;18.70;89.20;;;;;;5053727;28;20035;-80
2022/09/21 13:33:31;;;;;;;1.58;0.80;;;;;;;;;;5011165;28;20419;-83
2022/09/21 13:35:59;;;;;;;1.88;0.90;;;;;;;;;;5049491;28;20051;-80
2022/09/21 13:38:36;;;;;;;2.00;0.70;;;;;;;;;;5056185;28;20025;-83
2022/09/21 13:41:25;;;;;;;4.55;1.00;;;18.30;90.20;;;;;;5038772;28;20078;-84
2022/09/21 13:43:54;;;;;;;2.47;0.80;;;;;;;;;;5030628;28;20130;-82
2022/09/21 13:46:52;;;;;;;2.70;0.80;;;18.70;87.30;;;;;;5052766;28;20053;-82
2022/09/21 13:49:30;;;;;;;1.77;0.63;;;;;;;;;;5041342;28;20055;-83
2022/09/21 13:52:18;;;;;;;1.33;0.80;;;18.90;87.80;;;;;;5031430;28;20025;-81
2022/09/21 13:54:44;;;;;;;1.75;0.80;;;;;;;;;;5035914;28;20655;-80
2022/09/21 13:57:22;;;;;;;1.55;0.90;;;18.90;87.90;;;;;;5042692;28;20032;-83